San Luis, Argentina
Current Conditions -  °F | °C
As of 10:00 AM on Tuesday 21 Oct 2014 (Local Time) from SAOC Reporting Station
Clear Clear  
Wind Chill: 24°   Ceiling: Unl
Heat Index: 24°   Visibility: 6mi
Dew Point: 12°   Wind: 23mph
Humidity: 47%   Direction: 340°NNW
Pressure: 30"   Gusts: NA
Location:  33.3°S, 66.35°W
Report Text: SAOC 211300Z 34020KT CAVOK 24/12 Q1016
Loading
Personal Weather Stations






























Interactive Weather Map
Tropical Storm Tracking
New forecast layout! Learn more

10-Day Weather Forecast

Advertisements
Track Severe Weather on mobile